Time;durP1;ratioP1;P1;durP2;ratioP2;P2;SDS_P1;SDS_P2;PMS_P1;PMS_P2;Temp;Humidity;BMP_temperature;BMP_pressure;BME280_temperature;BME280_humidity;BME280_pressure;Samples;Min_cycle;Max_cycle;Signal;HPM_P1;HPM_P2
2022/10/16 00:01:04;;;;;;;1.98;0.82;;;;;;;;;;5053483;28;20051;-73
2022/10/16 00:03:30;;;;;;;1.30;1.20;;;;;;;;;;5053030;28;20075;-73
2022/10/16 00:06:00;;;;;;;4.47;0.82;;;;;;;;;;5076726;28;20045;-73
2022/10/16 00:08:26;;;;;;;1.67;0.80;;;;;;;;;;5074298;28;20055;-73
2022/10/16 00:10:52;;;;;;;3.15;1.00;;;;;;;;;;5051850;28;20068;-72
2022/10/16 00:13:20;;;;;;;3.53;1.00;;;;;;;;;;5052572;28;20082;-74
2022/10/16 00:15:46;;;;;;;2.00;0.98;;;;;;;;;;5075810;28;20063;-72
2022/10/16 00:18:14;;;;;;;1.38;0.90;;;;;;;;;;5076663;28;20045;-73
2022/10/16 00:20:40;;;;;;;2.35;0.70;;;;;;;;;;5074693;28;20091;-73
2022/10/16 00:23:06;;;;;;;2.03;1.08;;;;;;;;;;5077224;28;20044;-73
2022/10/16 00:25:33;;;;;;;1.98;1.10;;;;;;;;;;5053490;28;20195;-73
2022/10/16 00:27:59;;;;;;;1.10;0.75;;;;;;;;;;5067802;28;20049;-73
2022/10/16 00:30:27;;;;;;;1.80;1.33;;;;;;;;;;5059192;28;20083;-73
2022/10/16 00:32:53;;;;;;;1.88;1.00;;;;;;;;;;5052730;28;20094;-73
2022/10/16 00:35:20;;;;;;;2.60;1.10;;;;;;;;;;5051144;28;20106;-73
2022/10/16 00:37:46;;;;;;;1.85;1.05;;;;;;;;;;5052469;28;20068;-72
2022/10/16 00:40:12;;;;;;;2.20;0.80;;;;;;;;;;5052000;28;20553;-72
2022/10/16 00:42:38;;;;;;;2.63;0.80;;;;;;;;;;5079189;28;20032;-73
2022/10/16 00:45:04;;;;;;;3.40;1.08;;;;;;;;;;5058360;28;20044;-73
2022/10/16 00:47:45;;;;;;;1.88;1.00;;;;;;;;;;5059627;28;20612;-73
2022/10/16 00:50:16;;;;;;;1.75;1.00;;;;;;;;;;5052635;28;20037;-72
2022/10/16 00:52:45;;;;;;;1.67;0.97;;;;;;;;;;5051673;28;20098;-73
2022/10/16 00:55:11;;;;;;;3.10;1.00;;;;;;;;;;5059244;28;20274;-73
2022/10/16 00:57:38;;;;;;;1.52;1.00;;;;;;;;;;5074171;28;20083;-73
2022/10/16 01:00:05;;;;;;;4.10;1.55;;;;;;;;;;5077848;28;20059;-72
2022/10/16 01:02:32;;;;;;;2.40;1.02;;;;;;;;;;5075891;28;20128;-72
2022/10/16 01:04:58;;;;;;;0.98;0.90;;;;;;;;;;5073121;28;20136;-73
2022/10/16 01:07:33;;;;;;;1.90;0.90;;;;;;;;;;5050087;28;20032;-72
2022/10/16 01:10:10;;;;;;;1.55;0.82;;;;;;;;;;5056624;28;20045;-73
2022/10/16 01:12:49;;;;;;;4.03;1.02;;;;;;;;;;5058990;28;20048;-72
2022/10/16 01:15:31;;;;;;;0.57;0.50;;;;;;;;;;5058766;28;20072;-73
2022/10/16 01:18:00;;;;;;;1.50;1.02;;;;;;;;;;5056849;28;20064;-73
2022/10/16 01:20:31;;;;;;;4.28;0.88;;;;;;;;;;5054827;28;20055;-72
2022/10/16 01:23:03;;;;;;;3.35;0.85;;;;;;;;;;5076819;28;20079;-73
2022/10/16 01:25:49;;;;;;;1.80;0.85;;;;;;;;;;5073440;28;20038;-72
2022/10/16 01:28:16;;;;;;;1.75;0.70;;;;;;;;;;5059219;28;20049;-73
2022/10/16 01:30:44;;;;;;;1.08;0.80;;;;;;;;;;5054361;28;20206;-73
2022/10/16 01:33:30;;;;;;;2.33;0.90;;;;;;;;;;5052447;28;20049;-73
2022/10/16 01:35:59;;;;;;;2.03;1.23;;;;;;;;;;5056888;28;20116;-72
2022/10/16 01:38:38;;;;;;;3.47;1.33;;;;;;;;;;5059030;28;20036;-72
2022/10/16 01:41:21;;;;;;;2.53;0.90;;;;;;;;;;5058883;28;20694;-72
2022/10/16 01:43:54;;;;;;;2.45;0.70;;;;;;;;;;5074761;28;20051;-73
2022/10/16 01:46:21;;;;;;;0.95;0.70;;;;;;;;;;5077700;28;20044;-73
2022/10/16 01:48:51;;;;;;;1.00;0.75;;;;;;;;;;5072709;28;20980;-74
2022/10/16 01:51:18;;;;;;;2.97;0.88;;;;;;;;;;5059501;28;20044;-74
2022/10/16 01:53:48;;;;;;;0.60;0.60;;;;;;;;;;5050000;28;20651;-73
2022/10/16 01:56:16;;;;;;;1.48;0.70;;;;;;;;;;5057218;28;20048;-72
2022/10/16 01:58:46;;;;;;;1.30;0.68;;;;;;;;;;5051587;28;20159;-72
2022/10/16 02:01:15;;;;;;;4.40;1.25;;;;;;;;;;5059009;28;20051;-72
2022/10/16 02:03:45;;;;;;;1.10;0.90;;;;;;;;;;5058706;28;20514;-72
2022/10/16 02:06:12;;;;;;;3.17;1.00;;;;;;;;;;5057313;28;20170;-73
2022/10/16 02:08:40;;;;;;;2.63;0.63;;;;;;;;;;5073809;28;20041;-73
2022/10/16 02:11:06;;;;;;;2.25;0.80;;;;;;;;;;5057417;28;20067;-73
2022/10/16 02:13:45;;;;;;;0.93;0.70;;;;;;;;;;5073863;28;20048;-73
2022/10/16 02:16:12;;;;;;;1.23;0.80;;;;;;;;;;5056726;28;20047;-73
2022/10/16 02:18:38;;;;;;;6.45;0.90;;;;;;;;;;5077159;28;20135;-72
2022/10/16 02:21:09;;;;;;;2.72;0.57;;;;;;;;;;5074283;28;20048;-73
2022/10/16 02:23:38;;;;;;;0.57;0.50;;;;;;;;;;5056042;28;20102;-73
2022/10/16 02:26:07;;;;;;;2.00;0.70;;;;;;;;;;5074024;28;20055;-73
2022/10/16 02:28:46;;;;;;;1.52;0.73;;;;;;;;;;5076289;28;20213;-73
2022/10/16 02:31:13;;;;;;;0.75;0.60;;;;;;;;;;5082697;28;20036;-73
2022/10/16 02:33:41;;;;;;;1.77;0.82;;;;;;;;;;5066023;28;20369;-72
2022/10/16 02:36:07;;;;;;;3.78;0.95;;;;;;;;;;5083379;28;20052;-72
2022/10/16 02:38:34;;;;;;;1.23;0.65;;;;;;;;;;5066497;28;20087;-73
2022/10/16 02:41:00;;;;;;;2.22;0.85;;;;;;;;;;5055306;28;20044;-72
2022/10/16 02:43:26;;;;;;;2.53;1.48;;;;;;;;;;5064394;28;20104;-73
2022/10/16 02:45:53;;;;;;;2.10;0.90;;;;;;;;;;5067121;28;20036;-73
2022/10/16 02:48:19;;;;;;;2.58;0.93;;;;;;;;;;5076662;28;20108;-72
2022/10/16 02:50:45;;;;;;;3.35;1.35;;;;;;;;;;5059618;28;20533;-73
2022/10/16 02:53:11;;;;;;;0.82;0.70;;;;;;;;;;5056274;28;20056;-72
2022/10/16 02:55:37;;;;;;;1.92;1.30;;;;;;;;;;5074362;28;20048;-73
2022/10/16 02:58:03;;;;;;;2.90;0.80;;;;;;;;;;5055511;28;20087;-73
2022/10/16 03:00:29;;;;;;;1.73;0.70;;;;;;;;;;5076257;28;20143;-72
2022/10/16 03:02:55;;;;;;;1.08;0.73;;;;;;;;;;5073755;28;20052;-73
2022/10/16 03:05:22;;;;;;;1.52;0.70;;;;;;;;;;5074873;28;20079;-73
2022/10/16 03:07:52;;;;;;;1.20;0.63;;;;;;;;;;5052642;28;20037;-73
2022/10/16 03:10:18;;;;;;;4.75;1.00;;;;;;;;;;5066607;28;20087;-75
2022/10/16 03:12:45;;;;;;;2.80;1.38;;;;;;;;;;5051128;28;20044;-72
2022/10/16 03:15:11;;;;;;;1.17;0.60;;;;;;;;;;5074290;28;20518;-72
2022/10/16 03:17:37;;;;;;;1.27;0.70;;;;;;;;;;5051946;28;20562;-72
2022/10/16 03:20:03;;;;;;;1.67;1.17;;;;;;;;;;5058436;28;20489;-73
2022/10/16 03:22:29;;;;;;;2.38;0.70;;;;;;;;;;5076512;28;20041;-72
2022/10/16 03:24:55;;;;;;;1.10;0.65;;;;;;;;;;5078163;28;20149;-73
2022/10/16 03:27:22;;;;;;;1.17;0.60;;;;;;;;;;5051148;28;20614;-72
2022/10/16 03:29:48;;;;;;;1.35;0.65;;;;;;;;;;5056187;28;20364;-73
2022/10/16 03:32:14;;;;;;;1.77;1.08;;;;;;;;;;5055229;28;20080;-72
2022/10/16 03:34:40;;;;;;;0.50;0.50;;;;;;;;;;5071494;28;20173;-73
2022/10/16 03:37:07;;;;;;;1.85;0.98;;;;;;;;;;5073534;28;20045;-73
2022/10/16 03:39:33;;;;;;;2.38;0.90;;;;;;;;;;5072678;28;20037;-72
2022/10/16 03:41:59;;;;;;;1.85;0.70;;;;;;;;;;5073927;28;20839;-72
2022/10/16 03:44:25;;;;;;;1.33;1.23;;;;;;;;;;5076737;28;20047;-73
2022/10/16 03:46:51;;;;;;;2.05;0.90;;;;;;;;;;5077104;28;20126;-72
2022/10/16 03:49:17;;;;;;;1.10;0.65;;;;;;;;;;5053708;28;20040;-72
2022/10/16 03:51:43;;;;;;;0.80;0.73;;;;;;;;;;5076473;28;20553;-73
2022/10/16 03:54:10;;;;;;;1.77;0.93;;;;;;;;;;5078451;28;20077;-72
2022/10/16 03:56:36;;;;;;;0.82;0.52;;;;;;;;;;5077392;28;20041;-73
2022/10/16 03:59:02;;;;;;;2.97;0.77;;;;;;;;;;5073590;28;20080;-73
2022/10/16 04:01:28;;;;;;;1.30;0.85;;;;;;;;;;5059707;28;20056;-73
2022/10/16 04:03:54;;;;;;;0.70;0.70;;;;;;;;;;5058953;28;20044;-73
2022/10/16 04:06:20;;;;;;;1.63;0.98;;;;;;;;;;5054201;28;20904;-72
2022/10/16 04:08:47;;;;;;;1.38;0.70;;;;;;;;;;5076918;28;20041;-73
2022/10/16 04:11:13;;;;;;;1.38;0.80;;;;;;;;;;5066150;28;20048;-73
2022/10/16 04:13:39;;;;;;;1.67;0.80;;;;;;;;;;5078437;28;20040;-73
2022/10/16 04:16:05;;;;;;;0.60;0.60;;;;;;;;;;5075199;28;20118;-73
2022/10/16 04:18:31;;;;;;;0.88;0.70;;;;;;;;;;5059473;28;20550;-73
2022/10/16 04:21:02;;;;;;;3.83;1.45;;;;;;;;;;5053174;28;20041;-73
2022/10/16 04:23:28;;;;;;;1.80;1.10;;;;;;;;;;5076918;28;20037;-73
2022/10/16 04:25:54;;;;;;;2.53;0.90;;;;;;;;;;5052413;28;20060;-72
2022/10/16 04:28:20;;;;;;;0.95;0.80;;;;;;;;;;5077116;28;20040;-72
2022/10/16 04:30:46;;;;;;;1.30;0.70;;;;;;;;;;5033022;28;20056;-73
2022/10/16 04:33:13;;;;;;;3.70;1.00;;;;;;;;;;5054436;28;20052;-72
2022/10/16 04:35:39;;;;;;;0.70;0.70;;;;;;;;;;5055580;28;20523;-72
2022/10/16 04:38:05;;;;;;;1.52;1.13;;;;;;;;;;5057415;28;20519;-72
2022/10/16 04:40:36;;;;;;;0.95;0.82;;;;;;;;;;5049318;28;20076;-73
2022/10/16 04:43:02;;;;;;;2.87;0.93;;;;;;;;;;5054586;28;20044;-73
2022/10/16 04:45:28;;;;;;;1.33;0.70;;;;;;;;;;5056025;28;20041;-73
2022/10/16 04:47:57;;;;;;;1.17;0.63;;;;;;;;;;5055725;28;20549;-72
2022/10/16 04:50:23;;;;;;;1.25;0.80;;;;;;;;;;5054736;28;20041;-72
2022/10/16 04:52:49;;;;;;;1.27;0.80;;;;;;;;;;5071487;28;20063;-72
2022/10/16 04:55:16;;;;;;;1.08;0.90;;;;;;;;;;5058482;28;20486;-73
2022/10/16 04:57:42;;;;;;;1.55;1.17;;;;;;;;;;5056810;28;20513;-72
2022/10/16 05:00:08;;;;;;;1.92;1.38;;;;;;;;;;5058686;28;20478;-73
2022/10/16 05:02:34;;;;;;;2.58;1.08;;;;;;;;;;5058845;28;20076;-72
2022/10/16 05:05:00;;;;;;;2.05;0.80;;;;;;;;;;5056829;28;20080;-72
2022/10/16 05:07:27;;;;;;;1.27;0.85;;;;;;;;;;5055612;28;20568;-73
2022/10/16 05:09:54;;;;;;;4.55;1.25;;;;;;;;;;5056164;28;20053;-73
2022/10/16 05:12:20;;;;;;;4.80;1.27;;;;;;;;;;5056909;28;20037;-72
2022/10/16 05:14:46;;;;;;;1.48;0.95;;;;;;;;;;5056781;28;20051;-72
2022/10/16 05:17:12;;;;;;;1.55;1.20;;;;;;;;;;5057956;28;20045;-73
2022/10/16 05:19:38;;;;;;;1.27;0.95;;;;;;;;;;5056915;28;20272;-72
2022/10/16 05:22:05;;;;;;;1.58;0.95;;;;;;;;;;5056473;28;20045;-74
2022/10/16 05:24:31;;;;;;;2.28;1.10;;;;;;;;;;5055069;28;20577;-73
2022/10/16 05:26:57;;;;;;;2.45;1.02;;;;;;;;;;5055590;28;20041;-73
2022/10/16 05:29:23;;;;;;;2.40;1.05;;;;;;;;;;5059960;28;20044;-73
2022/10/16 05:31:53;;;;;;;3.65;1.42;;;;;;;;;;5065720;28;20032;-72
2022/10/16 05:34:20;;;;;;;2.78;1.10;;;;;;;;;;5076275;28;20047;-72
2022/10/16 05:36:46;;;;;;;3.40;1.42;;;;;;;;;;5077326;28;20036;-73
2022/10/16 05:39:14;;;;;;;2.30;0.90;;;;;;;;;;5051931;28;20138;-73
2022/10/16 05:41:40;;;;;;;3.67;1.80;;;;;;;;;;5076147;28;20033;-73
2022/10/16 05:44:07;;;;;;;5.20;2.28;;;;;;;;;;5052834;28;20056;-72
2022/10/16 05:46:33;;;;;;;2.20;1.38;;;;;;;;;;5065188;28;20032;-73
2022/10/16 05:48:59;;;;;;;4.32;1.58;;;;;;;;;;5079592;28;20120;-72
2022/10/16 05:51:25;;;;;;;2.20;1.38;;;;;;;;;;5053270;28;20092;-72
2022/10/16 05:53:52;;;;;;;2.85;1.65;;;;;;;;;;5075387;28;20040;-72
2022/10/16 05:56:19;;;;;;;3.60;1.75;;;;;;;;;;5082376;28;20045;-72
2022/10/16 05:58:45;;;;;;;2.92;1.48;;;;;;;;;;5067854;28;20045;-72
2022/10/16 06:01:13;;;;;;;2.45;1.38;;;;;;;;;;5086771;28;20040;-72
2022/10/16 06:03:39;;;;;;;2.75;1.95;;;;;;;;;;5070640;28;20044;-72
2022/10/16 06:06:11;;;;;;;3.97;1.85;;;;;;;;;;5086808;28;20068;-73
2022/10/16 06:08:37;;;;;;;2.83;1.45;;;;;;;;;;5069254;28;20144;-72
2022/10/16 06:11:04;;;;;;;2.42;1.48;;;;;;;;;;5056964;28;20048;-73
2022/10/16 06:13:30;;;;;;;2.03;1.60;;;;;;;;;;5077503;28;20573;-72
2022/10/16 06:15:58;;;;;;;2.25;1.48;;;;;;;;;;5057602;28;20032;-72
2022/10/16 06:18:24;;;;;;;4.75;1.40;;;;;;;;;;5074927;28;20212;-72
2022/10/16 06:20:50;;;;;;;2.15;1.52;;;;;;;;;;5049820;28;20116;-72
2022/10/16 06:23:16;;;;;;;4.05;1.92;;;;;;;;;;5066194;28;20045;-72
2022/10/16 06:25:42;;;;;;;1.98;1.27;;;;;;;;;;5071568;28;20045;-72
2022/10/16 06:28:09;;;;;;;1.75;1.27;;;;;;;;;;5051390;28;20290;-72
2022/10/16 06:30:35;;;;;;;2.80;1.70;;;;;;;;;;5051834;28;20048;-72
2022/10/16 06:33:01;;;;;;;2.13;1.20;;;;;;;;;;5074312;28;20127;-73
2022/10/16 06:35:29;;;;;;;1.60;1.33;;;;;;;;;;5055191;28;20474;-72
2022/10/16 06:37:55;;;;;;;2.65;1.60;;;;;;;;;;5056058;28;20045;-73
2022/10/16 06:40:21;;;;;;;2.78;1.58;;;;;;;;;;5073274;28;20033;-72
2022/10/16 06:42:48;;;;;;;3.85;1.67;;;;;;;;;;5059234;28;20039;-73
2022/10/16 06:45:14;;;;;;;2.67;1.63;;;;;;;;;;5054660;28;20098;-73
2022/10/16 06:47:40;;;;;;;2.20;1.80;;;;;;;;;;5056026;28;20518;-73
2022/10/16 06:50:07;;;;;;;3.10;1.45;;;;;;;;;;5072553;28;20032;-72
2022/10/16 06:52:33;;;;;;;2.92;1.52;;;;;;;;;;5073611;28;20041;-72
2022/10/16 06:54:59;;;;;;;2.92;1.65;;;;;;;;;;5049365;28;20880;-73
2022/10/16 06:57:26;;;;;;;3.33;1.73;;;;;;;;;;5055471;28;20142;-72
2022/10/16 06:59:52;;;;;;;2.90;2.00;;;;;;;;;;5051661;28;20033;-72
2022/10/16 07:02:18;;;;;;;2.08;1.38;;;;;;;;;;5065074;28;20044;-72
2022/10/16 07:04:45;;;;;;;2.80;2.00;;;;;;;;;;5075102;28;20036;-72
2022/10/16 07:07:13;;;;;;;4.95;2.00;;;;;;;;;;5056862;28;20621;-72
2022/10/16 07:09:40;;;;;;;2.55;2.05;;;;;;;;;;5039701;28;20068;-72
2022/10/16 07:12:06;;;;;;;2.75;1.60;;;;;;;;;;5053691;28;20037;-74
2022/10/16 07:14:35;;;;;;;2.88;1.70;;;;;;;;;;5046064;28;20123;-75
2022/10/16 07:17:01;;;;;;;2.72;1.63;;;;;;;;;;5068583;28;20051;-74
2022/10/16 07:19:28;;;;;;;3.47;2.00;;;;;;;;;;5074446;28;20044;-74
2022/10/16 07:21:56;;;;;;;4.15;1.65;;;;;;;;;;5052726;28;20044;-74
2022/10/16 07:24:24;;;;;;;2.42;1.50;;;;;;;;;;5076031;28;20045;-74
2022/10/16 07:26:57;;;;;;;2.80;1.50;;;;;;;;;;5073632;28;20079;-73
2022/10/16 07:29:23;;;;;;;1.45;1.00;;;;;;;;;;5049507;28;20040;-74
2022/10/16 07:31:50;;;;;;;3.20;2.03;;;;;;;;;;5076188;28;20873;-75
2022/10/16 07:34:16;;;;;;;4.72;1.63;;;;;;;;;;5069260;28;20047;-74
2022/10/16 07:36:45;;;;;;;4.63;1.60;;;;;;;;;;5048698;28;20083;-75
2022/10/16 07:39:12;;;;;;;4.32;1.83;;;;;;;;;;5071714;28;20036;-74
2022/10/16 07:41:41;;;;;;;2.17;1.60;;;;;;;;;;5068196;28;20578;-73
2022/10/16 07:44:07;;;;;;;5.50;3.13;;;;;;;;;;5044896;28;20045;-73
2022/10/16 07:46:35;;;;;;;2.95;1.60;;;;;;;;;;5075095;28;20041;-75
2022/10/16 07:49:02;;;;;;;5.35;2.65;;;;;;;;;;5051096;28;20048;-75
2022/10/16 07:51:28;;;;;;;3.08;2.05;;;;;;;;;;5075121;28;20122;-74
2022/10/16 07:53:57;;;;;;;3.88;1.92;;;;;;;;;;5053462;28;20072;-74
2022/10/16 07:56:26;;;;;;;4.30;1.80;;;;;;;;;;5073017;28;20044;-74
2022/10/16 07:58:56;;;;;;;2.40;1.58;;;;;;;;;;5072602;28;20139;-73
2022/10/16 08:01:22;;;;;;;2.20;1.33;;;;;;;;;;5050276;28;20041;-74
2022/10/16 08:03:52;;;;;;;5.25;2.50;;;;;;;;;;5074027;28;20128;-74
2022/10/16 08:06:19;;;;;;;2.05;1.38;;;;;;;;;;5051353;28;20639;-74
2022/10/16 08:08:45;;;;;;;2.42;1.63;;;;;;;;;;5065511;28;20048;-75
2022/10/16 08:11:14;;;;;;;6.47;1.80;;;;;;;;;;5071168;28;20135;-74
2022/10/16 08:13:42;;;;;;;3.33;1.70;;;;;;;;;;5073564;28;20045;-74
2022/10/16 08:16:09;;;;;;;3.30;1.70;;;;;;;;;;5064522;28;20952;-75
2022/10/16 08:18:38;;;;;;;1.77;1.42;;;;;;;;;;5073700;28;20051;-75
2022/10/16 08:21:06;;;;;;;2.47;1.40;;;;;;;;;;5074506;28;20120;-74
2022/10/16 08:23:34;;;;;;;2.10;1.30;;;;;;;;;;5055318;28;20048;-74
2022/10/16 08:26:05;;;;;;;2.53;1.20;;;;;;;;;;5048060;28;20041;-74
2022/10/16 08:28:34;;;;;;;2.78;1.73;;;;;;;;;;5047119;28;20123;-73
2022/10/16 08:31:11;;;;;;;2.63;0.98;;;;;;;;;;5055429;28;20040;-74
2022/10/16 08:33:37;;;;;;;0.93;0.70;;;;;;;;;;5076422;28;20128;-74
2022/10/16 08:36:06;;;;;;;1.73;1.42;;;;;;;;;;5059178;28;20531;-74
2022/10/16 08:38:33;;;;;;;0.95;0.60;;;;;;;;;;5073832;28;20624;-74
2022/10/16 08:41:16;;;;;;;1.52;1.13;;;;;;;;;;5051622;28;20124;-74
2022/10/16 08:44:04;;;;;;;3.30;1.10;;;;;;;;;;5064236;28;20048;-74
2022/10/16 08:46:52;;;;;;;1.10;0.68;;;;;;;;;;5053720;28;20045;-73
2022/10/16 08:49:19;;;;;;;1.85;0.90;;;;;;;;;;5057447;28;20606;-74
2022/10/16 08:51:48;;;;;;;1.25;0.80;;;;;;;;;;5074833;28;20056;-76
2022/10/16 08:54:41;;;;;;;0.73;0.73;;;;;;;;;;5073841;28;20068;-76
2022/10/16 08:57:10;;;;;;;0.55;0.52;;;;;;;;;;5054218;28;20187;-75
2022/10/16 08:59:39;;;;;;;2.75;0.82;;;;;;;;;;5049307;28;20071;-75
2022/10/16 09:02:20;;;;;;;3.17;0.93;;;;;;;;;;5055950;28;20052;-75
2022/10/16 09:05:04;;;;;;;2.38;1.10;;;;;;;;;;5055155;28;20041;-77
2022/10/16 09:07:37;;;;;;;1.50;0.70;;;;;;;;;;5049550;28;20110;-76
2022/10/16 09:10:16;;;;;;;;;;;;;;;;;;;;;
2022/10/16 09:12:53;;;;;;;1.80;1.05;;;;;;;;;;5076559;28;38887;-76
2022/10/16 09:15:23;;;;;;;1.67;0.95;;;;;;;;;;5076539;28;20047;-79
2022/10/16 09:18:05;;;;;;;1.38;1.27;;;;;;;;;;5075302;28;20056;-74
2022/10/16 09:20:31;;;;;;;;;;;;;;;;;;5081090;28;20033;-74
2022/10/16 09:23:08;;;;;;;0.88;0.70;;;;;;;;;;5085137;28;19984;-73
2022/10/16 09:25:35;;;;;;;0.57;0.50;;;;;;;;;;5052944;28;20044;-73
2022/10/16 09:28:01;;;;;;;2.58;1.42;;;;;;;;;;5062540;28;20055;-75
2022/10/16 09:30:29;;;;;;;1.17;0.70;;;;;;;;;;5060633;28;20053;-73
2022/10/16 09:32:55;;;;;;;0.73;0.57;;;;;;;;;;5072804;28;20593;-74
2022/10/16 09:35:31;;;;;;;1.48;0.70;;;;;;;;;;5049900;28;20109;-74
2022/10/16 09:38:00;;;;;;;1.55;0.80;;;;;;;;;;5052606;28;20108;-73
2022/10/16 09:40:29;;;;;;;3.22;1.17;;;;;;;;;;5052200;28;20045;-74
2022/10/16 09:43:01;;;;;;;2.15;0.80;;;;;;;;;;5056317;28;20475;-73
2022/10/16 09:45:27;;;;;;;3.95;0.80;;;;;;;;;;5053550;28;20546;-72
2022/10/16 09:47:54;;;;;;;1.88;1.25;;;;;;;;;;5056896;28;20024;-73
2022/10/16 09:50:27;;;;;;;2.47;1.80;;;;;;;;;;5070993;28;20050;-73
2022/10/16 09:53:12;;;;;;;12.77;7.40;;;;;;;;;;5055000;28;20032;-74
2022/10/16 09:55:48;;;;;;;35.35;20.38;;;;;;;;;;5072768;28;20037;-73
2022/10/16 09:58:15;;;;;;;13.40;8.00;;;;;;;;;;5070396;28;20555;-74
2022/10/16 10:00:42;;;;;;;4.40;2.10;;;;;;;;;;5057510;28;20041;-74
2022/10/16 10:03:12;;;;;;;13.48;9.18;;;;;;;;;;5048684;28;20040;-75
2022/10/16 10:05:39;;;;;;;21.23;14.07;;;;;;;;;;5072285;28;20044;-74
2022/10/16 10:08:08;;;;;;;6.07;2.92;;;;;;;;;;5068993;28;20140;-74
2022/10/16 10:10:38;;;;;;;3.17;2.05;;;;;;;;;;5047603;28;20035;-74
2022/10/16 10:13:20;;;;;;;18.50;8.90;;;;;;;;;;5056302;28;20144;-74
2022/10/16 10:15:46;;;;;;;4.90;2.60;;;;;;;;;;5069413;28;20037;-74
2022/10/16 10:18:21;;;;;;;6.93;3.42;;;;;;;;;;5070470;28;20160;-74
2022/10/16 10:20:57;;;;;;;5.07;1.88;;;;;;;;;;5052314;28;20052;-74
2022/10/16 10:23:26;;;;;;;3.92;1.85;;;;;;;;;;5065685;28;20793;-74
2022/10/16 10:25:52;;;;;;;7.75;3.95;;;;;;;;;;5048389;28;20120;-74
2022/10/16 10:28:21;;;;;;;7.25;4.35;;;;;;;;;;5055061;28;20046;-74
2022/10/16 10:30:56;;;;;;;8.18;4.60;;;;;;;;;;5065348;28;20054;-74
2022/10/16 10:33:33;;;;;;;5.68;3.35;;;;;;;;;;5070335;28;20064;-74
2022/10/16 10:36:21;;;;;;;9.75;6.57;;;;;;;;;;5067828;28;20052;-74
2022/10/16 10:38:56;;;;;;;6.03;3.97;;;;;;;;;;5068690;28;20041;-74
2022/10/16 10:41:22;;;;;;;6.15;3.92;;;;;;;;;;5046971;28;20040;-74
2022/10/16 10:43:56;;;;;;;4.85;2.30;;;;;;;;;;5070137;28;20197;-74
2022/10/16 10:46:34;;;;;;;3.28;1.88;;;;;;;;;;5069953;28;20045;-74
2022/10/16 10:49:11;;;;;;;3.75;1.80;;;;;;;;;;5051404;28;20056;-74
2022/10/16 10:51:41;;;;;;;3.22;1.30;;;;;;;;;;5047106;28;20102;-74
2022/10/16 10:54:21;;;;;;;3.55;1.48;;;;;;;;;;5064733;28;20601;-73
2022/10/16 10:56:58;;;;;;;4.85;1.52;;;;;;;;;;5057447;28;20095;-73
2022/10/16 10:59:30;;;;;;;0.68;0.60;;;;;;;;;;5070877;28;20041;-74
2022/10/16 11:02:00;;;;;;;1.08;0.80;;;;;;;;;;5070553;28;20554;-74
2022/10/16 11:04:26;;;;;;;1.58;1.10;;;;;;;;;;5047683;28;20048;-75
2022/10/16 11:06:55;;;;;;;2.35;1.10;;;;;;;;;;5072348;28;20040;-72
2022/10/16 11:09:24;;;;;;;2.72;1.50;;;;;;;;;;5074220;28;20053;-75
2022/10/16 11:11:55;;;;;;;1.95;1.00;;;;;;;;;;5048368;28;20043;-74
2022/10/16 11:14:31;;;;;;;1.40;1.07;;;;;;;;;;5073798;28;20048;-72
2022/10/16 11:16:57;;;;;;;1.40;0.80;;;;;;;;;;5066190;28;20086;-76
2022/10/16 11:19:30;;;;;;;1.52;0.80;;;;;;;;;;5072986;28;21246;-73
2022/10/16 11:22:08;;;;;;;1.13;0.73;;;;;;;;;;5066785;28;20037;-72
2022/10/16 11:24:34;;;;;;;1.55;1.10;;;;;;;;;;5052617;28;20044;-70
2022/10/16 11:27:03;;;;;;;1.73;0.77;;;;;;;;;;5063036;28;20115;-70
2022/10/16 11:29:31;;;;;;;1.95;0.82;;;;;;;;;;5069772;28;20606;-71
2022/10/16 11:32:06;;;;;;;1.58;0.90;;;;;;;;;;5046423;28;20041;-75
2022/10/16 11:34:41;;;;;;;1.13;0.65;;;;;;;;;;5071630;28;20102;-70
2022/10/16 11:37:34;;;;;;;0.98;0.70;;;;;;;;;;5056553;28;20045;-70
2022/10/16 11:40:05;;;;;;;5.28;1.55;;;;;;;;;;5073680;28;20057;-70
2022/10/16 11:42:36;;;;;;;1.85;1.00;;;;;;;;;;5057093;28;20055;-70
2022/10/16 11:45:40;;;;;;;1.13;0.75;;;;;;;;;;5052265;28;20044;-70
2022/10/16 11:48:16;;;;;;;1.15;0.70;;;;;;;;;;5015553;28;20553;-69
2022/10/16 11:50:42;;;;;;;1.80;0.80;;;;;;;;;;5035477;28;20026;-69
2022/10/16 11:53:27;;;;;;;1.77;1.20;;;;;;;;;;5063445;27;20435;-69
2022/10/16 11:55:53;;;;;;;2.75;0.80;;;;;;;;;;5075278;28;20037;-69
2022/10/16 11:58:38;;;;;;;1.77;1.10;;;;;;;;;;5075010;28;20075;-70
2022/10/16 12:01:19;;;;;;;2.95;1.30;;;;;;;;;;5074140;28;20044;-69
2022/10/16 12:03:45;;;;;;;2.75;1.30;;;;;;;;;;5073516;28;20048;-70
2022/10/16 12:06:34;;;;;;;4.47;1.73;;;;;;;;;;5075218;28;20048;-71
2022/10/16 12:09:01;;;;;;;2.58;1.58;;;;;;;;;;5046569;28;20048;-70
2022/10/16 12:11:27;;;;;;;1.95;1.50;;;;;;;;;;5074727;28;20102;-70
2022/10/16 12:14:04;;;;;;;5.18;1.70;;;;;;;;;;5075095;28;20048;-71
2022/10/16 12:16:30;;;;;;;2.83;1.55;;;;;;;;;;5076287;28;20135;-71
2022/10/16 12:19:16;;;;;;;1.80;1.10;;;;;;;;;;5050658;28;20034;-74
2022/10/16 12:21:43;;;;;;;3.58;1.20;;;;;;;;;;5074635;28;20064;-71
2022/10/16 12:24:27;;;;;;;2.10;1.27;;;;;;;;;;5075212;28;21087;-70
2022/10/16 12:26:53;;;;;;;2.95;1.50;;;;;;;;;;5056670;28;20040;-70
2022/10/16 12:29:22;;;;;;;2.17;1.30;;;;;;;;;;5074338;28;20550;-71
2022/10/16 12:31:49;;;;;;;2.83;1.20;;;;;;;;;;5056290;28;20538;-70
2022/10/16 12:34:22;;;;;;;2.80;1.58;;;;;;;;;;5057455;28;20075;-70
2022/10/16 12:36:49;;;;;;;2.08;1.33;;;;;;;;;;5054862;28;20355;-70
2022/10/16 12:39:22;;;;;;;20.23;12.30;;;;;;;;;;5067791;28;20051;-70
2022/10/16 12:41:48;;;;;;;30.30;17.40;;;;;;;;;;5075870;28;20048;-71
2022/10/16 12:44:23;;;;;;;12.40;7.38;;;;;;;;;;5048684;28;20041;-71
2022/10/16 12:46:50;;;;;;;7.15;3.70;;;;;;;;;;5048076;28;20507;-70
2022/10/16 12:49:21;;;;;;;6.20;3.97;;;;;;;;;;5052928;28;20123;-70
2022/10/16 12:51:47;;;;;;;4.50;2.60;;;;;;;;;;5073850;28;20072;-70
2022/10/16 12:54:13;;;;;;;8.93;5.45;;;;;;;;;;5066387;28;20040;-71
2022/10/16 12:56:49;;;;;;;4.68;3.20;;;;;;;;;;5076919;28;20052;-70
2022/10/16 12:59:21;;;;;;;3.85;2.78;;;;;;;;;;5052612;28;20139;-70
2022/10/16 13:02:05;;;;;;;3.05;1.98;;;;;;;;;;5076561;28;20045;-70
2022/10/16 13:04:50;;;;;;;8.20;2.78;;;;;;;;;;5050715;28;20609;-71
2022/10/16 13:07:26;;;;;;;5.47;2.72;;;;;;;;;;5067101;28;20052;-71
2022/10/16 13:10:06;;;;;;;6.78;4.53;;;;;;;;;;5076557;28;21231;-70
2022/10/16 13:12:40;;;;;;;6.15;3.58;;;;;;;;;;5058585;28;20076;-70
2022/10/16 13:15:12;;;;;;;8.82;5.50;;;;;;;;;;5058987;28;20044;-70
2022/10/16 13:17:57;;;;;;;4.93;3.03;;;;;;;;;;5049512;28;20051;-70
2022/10/16 13:20:30;;;;;;;4.10;2.72;;;;;;;;;;5076091;28;20506;-70
2022/10/16 13:22:56;;;;;;;8.98;4.50;;;;;;;;;;5076612;28;20576;-70
2022/10/16 13:25:22;;;;;;;5.63;3.10;;;;;;;;;;5052107;28;20101;-69
2022/10/16 13:27:55;;;;;;;8.02;3.30;;;;;;;;;;5060009;28;20036;-70
2022/10/16 13:30:26;;;;;;;9.98;4.40;;;;;;;;;;5057129;28;20098;-70
2022/10/16 13:33:12;;;;;;;4.47;3.78;;;;;;;;;;5074118;28;20586;-70
2022/10/16 13:35:46;;;;;;;4.95;3.10;;;;;;;;;;5049068;28;20044;-70
2022/10/16 13:38:17;;;;;;;4.10;2.30;;;;;;;;;;5065319;28;20068;-80
2022/10/16 13:40:49;;;;;;;4.88;2.33;;;;;;;;;;5075369;28;20447;-79
2022/10/16 13:43:16;;;;;;;3.80;2.30;;;;;;;;;;5074662;28;20550;-70
2022/10/16 13:45:52;;;;;;;4.47;2.50;;;;;;;;;;5053702;28;20058;-71
2022/10/16 13:48:19;;;;;;;5.63;3.35;;;;;;;;;;5074484;28;20079;-71
2022/10/16 13:50:45;;;;;;;6.03;3.03;;;;;;;;;;5049096;28;20051;-70
2022/10/16 13:53:14;;;;;;;3.92;2.33;;;;;;;;;;5070722;28;20052;-70
2022/10/16 13:55:41;;;;;;;5.50;3.75;;;;;;;;;;5067435;28;20120;-69
2022/10/16 13:58:14;;;;;;;3.42;2.40;;;;;;;;;;5051567;28;20064;-70
2022/10/16 14:00:42;;;;;;;38.05;19.67;;;;;;;;;;5055020;28;20152;-70
2022/10/16 14:03:15;;;;;;;11.90;8.80;;;;;;;;;;5066961;28;20044;-70
2022/10/16 14:05:52;;;;;;;19.90;12.02;;;;;;;;;;5051797;28;20510;-70
2022/10/16 14:08:18;;;;;;;9.05;6.40;;;;;;;;;;5062574;28;20066;-69
2022/10/16 14:10:48;;;;;;;7.63;5.80;;;;;;;;;;5044510;28;20090;-70
2022/10/16 14:13:17;;;;;;;8.95;5.68;;;;;;;;;;5048560;28;20163;-70
2022/10/16 14:15:47;;;;;;;9.80;6.57;;;;;;;;;;5068241;28;20409;-70
2022/10/16 14:18:19;;;;;;;6.22;3.78;;;;;;;;;;5069192;28;20051;-70
2022/10/16 14:20:45;;;;;;;7.53;4.18;;;;;;;;;;5048553;28;20032;-71
2022/10/16 14:23:21;;;;;;;6.35;3.50;;;;;;;;;;5070276;28;20040;-70
2022/10/16 14:25:47;;;;;;;8.77;5.05;;;;;;;;;;5061033;28;20041;-70
2022/10/16 14:28:18;;;;;;;5.95;4.03;;;;;;;;;;5053627;28;20041;-69
2022/10/16 14:30:54;;;;;;;6.95;4.43;;;;;;;;;;5072781;28;20129;-69
2022/10/16 14:33:40;;;;;;;9.30;3.67;;;;;;;;;;5054730;28;20110;-70
2022/10/16 14:36:11;;;;;;;8.55;4.45;;;;;;;;;;5071942;28;20103;-70
2022/10/16 14:38:38;;;;;;;10.98;6.10;;;;;;;;;;5050799;28;20055;-70
2022/10/16 14:41:05;;;;;;;6.13;4.38;;;;;;;;;;5051731;28;20524;-70
2022/10/16 14:43:31;;;;;;;6.78;4.22;;;;;;;;;;5072092;28;20518;-70
2022/10/16 14:45:57;;;;;;;5.30;3.42;;;;;;;;;;5049401;28;20040;-70
2022/10/16 14:48:25;;;;;;;7.05;3.75;;;;;;;;;;5074551;28;20098;-69
2022/10/16 14:50:51;;;;;;;6.88;3.65;;;;;;;;;;5073373;28;20055;-70
2022/10/16 14:53:17;;;;;;;5.97;3.47;;;;;;;;;;5056596;28;20161;-70
2022/10/16 14:55:43;;;;;;;8.50;2.90;;;;;;;;;;5071731;28;20040;-70
2022/10/16 14:58:20;;;;;;;7.78;3.65;;;;;;;;;;5071449;28;20033;-70